The Eastern Iowa Airport
Sunday 9:52 PM
Temperature76° (86°/69°)
Dew Point74°
Relative Humidity94
%
Visibility8
mi
Pressure1013.2
mb
Wind DirectionSSE
150°
Wind Speed5
mph
Precipitation Today0.00"

Terminal Aerodrome Forecast

867 
FTUS43 KDVN 092321
TAFCID
TAF
KCID 092321Z 1000/1024 18010KT P6SM SKC
     FM100900 18006KT 5SM BR SCT010
     FM101200 20004KT 6SM BR BKN015
     FM101500 27006KT P6SM SCT025 BKN150 PROB30 1021/1024 3SM TSRA
      BKN025CB=

Last 30 Observations

Time PresWx Temp DP Feels RH% Vsby Pressure Ceiling Direction Speed 1h Precip